Alma, Georgia
Current Conditions -  °F | °C
As of 7:53 PM on Monday 24 Nov 2014 (Local Time) from KAMG Reporting Station
Overcast Overcast  
Wind Chill: 63°   Ceiling: 9000
Heat Index: 63°   Visibility: 10mi
Dew Point: 60°   Wind: 6mph
Humidity: 90%   Direction: 190°S
Pressure: 29.96"   Gusts: NA
Location:  31.54°N, 82.46°W
Report Text: KAMG 250053Z AUTO 19005KT 10SM BKN090 OVC100 17/16 A2996 RMK AO2 RAB2356E33 SLP142 P0000 T01720156
Loading
Personal Weather Stations






























Interactive Weather Map New forecast layout! Learn more

10-Day Weather Forecast

Advertisements
Track Severe Weather on mobile